createdAt,value
2023-05-17T00:01:38.276Z,100707.06
2023-05-17T00:04:06.441Z,100672.03
2023-05-17T00:06:35.049Z,100658.06
2023-05-17T00:09:03.239Z,100678.22
2023-05-17T00:11:32.653Z,100654.03
2023-05-17T00:14:00.548Z,100678.22
2023-05-17T00:16:32.851Z,100684.53
2023-05-17T00:19:05.427Z,100681.84
2023-05-17T00:21:33.527Z,100670.44
2023-05-17T00:24:01.510Z,100679.38
2023-05-17T00:26:29.533Z,100656.38
2023-05-17T00:28:58.893Z,100647.84
2023-05-17T00:31:26.739Z,100657.44
2023-05-17T00:33:55.125Z,100641.06
2023-05-17T00:36:23.009Z,100654.91
2023-05-17T00:38:50.776Z,100641.28
2023-05-17T00:41:18.661Z,100626.03
2023-05-17T00:43:46.499Z,100644.44
2023-05-17T00:46:16.171Z,100670.66
2023-05-17T00:48:44.270Z,100665.56
2023-05-17T00:51:13.269Z,100659.47
2023-05-17T00:53:41.116Z,100648.94
2023-05-17T00:56:09.032Z,100683.03
2023-05-17T00:58:38.136Z,100705.91
2023-05-17T01:01:06.151Z,100691.75
2023-05-17T01:03:35.463Z,100685.56
2023-05-17T01:06:03.612Z,100663.84
2023-05-17T01:08:31.575Z,100646.38
2023-05-17T01:11:08.010Z,100655.97
2023-05-17T01:13:43.565Z,100656.06
2023-05-17T01:16:17.296Z,100647.47
2023-05-17T01:18:53.785Z,100647.22
2023-05-17T01:21:36.568Z,100684.94
2023-05-17T01:24:17.951Z,100692.84
2023-05-17T01:26:50.800Z,100699.00
2023-05-17T01:29:23.306Z,100703.25
2023-05-17T01:31:51.260Z,100695.38
2023-05-17T01:34:26.345Z,100694.53
2023-05-17T01:36:54.297Z,100674.50
2023-05-17T01:39:22.342Z,100659.31
2023-05-17T01:42:01.011Z,100655.34
2023-05-17T01:44:38.379Z,100671.09
2023-05-17T01:47:13.100Z,100636.19
2023-05-17T01:49:42.649Z,100622.38
2023-05-17T01:52:17.264Z,100599.78
2023-05-17T01:54:48.833Z,100631.81
2023-05-17T01:57:22.416Z,100645.88
2023-05-17T01:59:52.880Z,100638.97
2023-05-17T02:02:22.690Z,100634.59
2023-05-17T02:04:51.642Z,100609.28
2023-05-17T02:07:19.588Z,100604.06
2023-05-17T02:09:47.585Z,100596.28
2023-05-17T02:12:15.361Z,100608.44
2023-05-17T02:14:44.738Z,100590.84
2023-05-17T02:17:13.486Z,100594.47
2023-05-17T02:19:41.354Z,100591.06
2023-05-17T02:22:09.134Z,100589.38
2023-05-17T02:24:37.641Z,100594.47
2023-05-17T02:27:05.871Z,100596.41
2023-05-17T02:29:34.707Z,100628.53
2023-05-17T02:32:04.159Z,100628.53
2023-05-17T02:34:32.055Z,100641.75
2023-05-17T02:36:59.837Z,100633.03
2023-05-17T02:39:27.763Z,100633.03
2023-05-17T02:41:55.613Z,100617.28
2023-05-17T02:44:23.629Z,100608.75
2023-05-17T02:46:51.485Z,100578.94
2023-05-17T02:49:20.627Z,100555.44
2023-05-17T02:51:48.432Z,100574.81
2023-05-17T02:54:16.260Z,100613.88
2023-05-17T02:56:44.066Z,100606.09
2023-05-17T02:59:12.036Z,100613.88
2023-05-17T03:01:39.824Z,100628.91
2023-05-17T03:04:07.757Z,100653.13
2023-05-17T03:06:38.513Z,100676.03
2023-05-17T03:09:06.967Z,100660.28
2023-05-17T03:11:35.297Z,100639.19
2023-05-17T03:14:03.126Z,100668.16
2023-05-17T03:16:31.024Z,100658.59
2023-05-17T03:18:59.559Z,100669.00
2023-05-17T03:21:27.512Z,100649.00
2023-05-17T03:23:56.740Z,100650.72
2023-05-17T03:26:25.050Z,100655.19
2023-05-17T03:28:52.848Z,100656.88
2023-05-17T03:31:20.795Z,100705.00
2023-05-17T03:33:48.701Z,100691.69
2023-05-17T03:36:16.643Z,100694.47
2023-05-17T03:38:44.413Z,100709.38
2023-05-17T03:41:14.040Z,100754.75
2023-05-17T03:43:41.898Z,100731.94
2023-05-17T03:46:09.845Z,100756.47
2023-05-17T03:48:37.708Z,100742.50
2023-05-17T03:51:05.936Z,100755.50
2023-05-17T03:53:33.705Z,100736.44
2023-05-17T03:56:01.561Z,100780.00
2023-05-17T03:58:30.751Z,100784.50
2023-05-17T04:00:58.492Z,100810.91
2023-05-17T04:03:26.553Z,100798.56
2023-05-17T04:05:54.357Z,100801.09
2023-05-17T04:08:22.171Z,100792.38
2023-05-17T04:10:49.953Z,100822.81
2023-05-17T04:13:17.769Z,100903.41
2023-05-17T04:15:46.912Z,101003.81
2023-05-17T04:18:14.836Z,101038.81
2023-05-17T04:20:43.614Z,101071.34
2023-05-17T04:23:11.431Z,101058.84
2023-05-17T04:25:39.350Z,101032.00
2023-05-17T04:28:07.181Z,101023.25
2023-05-17T04:30:35.049Z,101009.13
2023-05-17T04:33:04.409Z,101016.22
2023-05-17T04:35:32.249Z,101041.47
2023-05-17T04:38:00.047Z,101023.25
2023-05-17T04:40:28.484Z,101032.00
2023-05-17T04:42:56.298Z,101094.91
2023-05-17T04:45:24.087Z,101141.25
2023-05-17T04:47:52.870Z,101151.69
2023-05-17T04:50:22.078Z,101229.72
2023-05-17T04:52:50.180Z,101217.44
2023-05-17T04:55:18.074Z,101243.69
2023-05-17T04:57:45.910Z,101226.19
2023-05-17T05:00:15.472Z,101202.72
2023-05-17T05:02:43.507Z,101186.06
2023-05-17T05:05:12.150Z,101159.81
2023-05-17T05:07:41.498Z,101184.25
2023-05-17T05:10:09.993Z,101171.13
2023-05-17T05:12:38.673Z,101179.75
2023-05-17T05:15:07.516Z,101168.56
2023-05-17T05:17:35.403Z,101142.28
2023-05-17T05:20:04.207Z,101087.25
2023-05-17T05:22:32.187Z,101028.69
2023-05-17T05:25:01.560Z,100995.50
2023-05-17T05:27:29.397Z,100955.22
2023-05-17T05:29:57.325Z,100893.16
2023-05-17T05:32:25.278Z,100857.38
2023-05-17T05:34:53.085Z,100809.31
2023-05-17T05:37:20.909Z,100742.94
2023-05-17T05:39:48.797Z,100686.53
2023-05-17T05:42:17.922Z,100646.03
2023-05-17T05:44:45.904Z,100607.75
2023-05-17T05:47:13.798Z,100562.44
2023-05-17T05:49:41.700Z,100561.59
2023-05-17T05:52:11.834Z,100571.16
2023-05-17T05:54:39.589Z,100534.53
2023-05-17T05:57:07.470Z,100504.75
2023-05-17T05:59:36.657Z,100514.56
2023-05-17T06:02:04.801Z,100519.78
2023-05-17T06:04:43.934Z,100532.84
2023-05-17T06:07:13.639Z,100560.75
2023-05-17T06:09:42.071Z,100613.06
2023-05-17T06:12:10.111Z,100649.66
2023-05-17T06:14:39.393Z,100690.78
2023-05-17T06:17:07.234Z,100696.72
2023-05-17T06:19:35.173Z,100723.88
2023-05-17T06:22:03.241Z,100720.38
2023-05-17T06:24:31.218Z,100710.69
2023-05-17T06:26:59.095Z,100744.75
2023-05-17T06:29:27.427Z,100745.81
2023-05-17T06:31:58.118Z,100826.06
2023-05-17T06:34:25.933Z,100859.28
2023-05-17T06:36:53.881Z,100887.19
2023-05-17T06:39:21.616Z,100921.22
2023-05-17T06:41:49.346Z,100934.31
2023-05-17T06:44:17.209Z,100976.31
2023-05-17T06:46:45.051Z,100950.31
2023-05-17T06:49:14.190Z,101006.19
2023-05-17T06:51:41.973Z,101041.16
2023-05-17T06:54:09.715Z,101197.59
2023-05-17T06:56:37.717Z,101325.44
2023-05-17T06:59:05.539Z,101364.03
2023-05-17T07:01:33.362Z,101420.25
2023-05-17T07:04:01.329Z,101355.25
2023-05-17T07:06:31.378Z,101414.03
2023-05-17T07:08:59.192Z,101556.25
2023-05-17T07:11:27.030Z,101774.66
2023-05-17T07:13:54.877Z,101841.38
2023-05-17T07:16:22.632Z,101855.41
2023-05-17T07:18:50.540Z,101862.50
2023-05-17T07:21:18.466Z,102094.41
2023-05-17T07:23:47.684Z,102277.59
2023-05-17T07:26:15.494Z,102433.50
2023-05-17T07:28:44.270Z,102542.94
2023-05-17T07:31:12.027Z,102458.41
2023-05-17T07:33:39.933Z,102304.13
2023-05-17T07:36:08.511Z,102014.59
2023-05-17T07:38:36.777Z,101798.56
2023-05-17T07:41:09.553Z,101498.91
2023-05-17T07:43:38.500Z,101414.22
2023-05-17T07:46:08.226Z,101229.41
2023-05-17T07:48:36.162Z,101200.59
2023-05-17T07:51:04.035Z,101184.81
2023-05-17T07:53:31.836Z,101043.06
2023-05-17T07:55:59.675Z,100896.38
2023-05-17T07:58:28.802Z,100847.38
2023-05-17T08:00:56.636Z,100803.69
2023-05-17T08:03:24.577Z,100827.97
2023-05-17T08:05:52.470Z,100845.44
2023-05-17T08:08:21.126Z,100903.94
2023-05-17T08:10:49.756Z,101014.19
2023-05-17T08:13:17.557Z,101141.75
2023-05-17T08:15:46.744Z,101271.38
2023-05-17T08:18:14.663Z,101274.03
2023-05-17T08:20:43.277Z,101205.84
2023-05-17T08:23:11.184Z,101088.53
2023-05-17T08:25:39.049Z,100868.25
2023-05-17T08:28:06.974Z,100787.91
2023-05-17T08:30:34.917Z,100732.09
2023-05-17T08:33:04.384Z,100630.13
2023-05-17T08:35:32.584Z,100596.09
2023-05-17T08:38:00.506Z,100513.94
2023-05-17T08:40:29.517Z,100419.13
2023-05-17T08:42:58.068Z,100318.78
2023-05-17T08:45:28.090Z,100216.00
2023-05-17T08:47:56.932Z,100164.59
2023-05-17T08:50:30.460Z,100200.47
2023-05-17T08:52:59.953Z,100231.94
2023-05-17T08:55:30.715Z,100286.50
2023-05-17T08:57:58.611Z,100219.81
2023-05-17T09:00:28.312Z,100216.22
2023-05-17T09:02:57.159Z,100185.63
2023-05-17T09:05:26.530Z,100176.06
2023-05-17T09:07:55.098Z,100114.19
2023-05-17T09:10:23.052Z,100072.44
2023-05-17T09:12:51.073Z,100067.25
2023-05-17T09:15:20.148Z,100024.75
2023-05-17T09:17:53.436Z,99999.63
2023-05-17T09:20:34.710Z,99973.44
2023-05-17T09:23:02.899Z,99967.47
2023-05-17T09:25:31.576Z,99989.97
2023-05-17T09:28:02.846Z,99969.19
2023-05-17T09:30:31.509Z,99982.97
2023-05-17T09:33:06.150Z,99975.25
2023-05-17T09:35:37.679Z,99908.47
2023-05-17T09:38:08.697Z,99824.09
2023-05-17T09:40:40.130Z,99828.44
2023-05-17T09:43:08.310Z,99825.06
2023-05-17T09:45:37.441Z,99816.38
2023-05-17T09:48:13.894Z,99746.91
2023-05-17T09:50:47.448Z,99615.72
2023-05-17T09:53:29.042Z,99516.19
2023-05-17T09:55:58.635Z,99461.63
2023-05-17T09:58:28.358Z,99366.28
2023-05-17T10:01:01.697Z,99303.09
2023-05-17T10:03:33.275Z,99234.75
2023-05-17T10:06:05.609Z,99161.19
2023-05-17T10:08:34.736Z,99133.56
2023-05-17T10:11:06.799Z,99106.72
2023-05-17T10:13:37.142Z,99124.16
2023-05-17T10:16:05.463Z,99073.94
2023-05-17T10:18:34.230Z,99099.06
2023-05-17T10:21:03.882Z,99098.09
2023-05-17T10:23:32.651Z,99085.94
2023-05-17T10:26:00.983Z,99115.91
2023-05-17T10:28:31.641Z,99118.16
2023-05-17T10:31:00.850Z,99072.41
2023-05-17T10:33:28.984Z,98990.94
2023-05-17T10:35:57.272Z,98959.84
2023-05-17T10:38:35.302Z,98933.19
2023-05-17T10:41:10.031Z,98919.41
2023-05-17T10:43:39.132Z,98941.84
2023-05-17T10:46:15.001Z,98934.03
2023-05-17T10:48:43.191Z,98917.59
2023-05-17T10:51:12.393Z,98876.03
2023-05-17T10:54:12.854Z,98895.94
2023-05-17T10:56:42.668Z,98888.28
2023-05-17T10:59:21.759Z,98891.63
2023-05-17T11:01:52.672Z,98902.22
2023-05-17T11:04:26.191Z,98872.69
2023-05-17T11:06:57.365Z,98820.84
2023-05-17T11:09:26.770Z,98889.97
2023-05-17T11:12:10.986Z,98932.22
2023-05-17T11:14:48.906Z,98950.47
2023-05-17T11:17:17.972Z,98959.84
2023-05-17T11:20:32.917Z,99023.03
2023-05-17T11:23:04.209Z,99060.50
2023-05-17T11:25:36.055Z,99114.53
2023-05-17T11:28:20.615Z,99107.56
2023-05-17T11:30:53.587Z,99164.69
2023-05-17T11:33:32.941Z,99209.31
2023-05-17T11:36:07.436Z,99194.38
2023-05-17T11:38:35.701Z,99176.81
2023-05-17T11:43:53.431Z,99067.94
2023-05-17T11:46:23.136Z,99052.44
2023-05-17T11:48:54.715Z,99016.03
2023-05-17T11:51:24.889Z,98942.69
2023-05-17T11:53:55.923Z,98897.63
2023-05-17T11:56:35.521Z,98882.16
2023-05-17T11:59:10.347Z,98866.09
2023-05-17T12:01:46.109Z,98867.66
2023-05-17T12:04:14.106Z,98878.81
2023-05-17T12:06:42.552Z,98832.00
2023-05-17T12:09:13.509Z,98855.41
2023-05-17T12:11:43.363Z,98840.78
2023-05-17T12:14:11.481Z,98879.50
2023-05-17T12:16:47.577Z,98840.78
2023-05-17T12:19:20.163Z,98836.44
2023-05-17T12:21:48.506Z,98859.72
2023-05-17T12:24:16.884Z,98839.94
2023-05-17T12:26:47.020Z,98816.66
2023-05-17T12:29:17.834Z,98798.56
2023-05-17T12:31:49.597Z,98808.03
2023-05-17T12:34:19.294Z,98780.41
2023-05-17T12:36:47.678Z,98774.44
2023-05-17T12:39:18.068Z,98779.59
2023-05-17T12:41:48.902Z,98775.97
2023-05-17T12:44:17.072Z,98736.41
2023-05-17T12:46:45.701Z,98748.53
2023-05-17T12:49:13.796Z,98805.50
2023-05-17T12:51:43.640Z,98835.63
2023-05-17T12:54:12.701Z,98854.00
2023-05-17T12:56:43.006Z,98880.59
2023-05-17T12:59:14.824Z,98839.47
2023-05-17T13:01:44.870Z,98789.19
2023-05-17T13:04:13.567Z,98794.09
2023-05-17T13:06:46.812Z,98791.59
2023-05-17T13:09:16.510Z,98742.66
2023-05-17T13:11:44.350Z,98724.44
2023-05-17T13:14:13.646Z,98693.53
2023-05-17T13:16:42.809Z,98663.28
2023-05-17T13:19:14.876Z,98650.34
2023-05-17T13:21:42.713Z,98656.06
2023-05-17T13:24:11.051Z,98682.13
2023-05-17T13:26:39.049Z,98623.34
2023-05-17T13:29:07.011Z,98632.81
2023-05-17T13:31:36.247Z,98601.09
2023-05-17T13:34:04.291Z,98615.13
2023-05-17T13:36:32.190Z,98591.75
2023-05-17T13:39:01.957Z,98560.47
2023-05-17T13:41:29.849Z,98592.16
2023-05-17T13:43:58.322Z,98662.31
2023-05-17T13:46:26.478Z,98652.72
2023-05-17T13:48:56.757Z,98685.59
2023-05-17T13:51:25.509Z,98731.41
2023-05-17T13:53:53.382Z,98736.41
2023-05-17T13:56:22.348Z,98764.97
2023-05-17T13:58:50.607Z,98769.28
2023-05-17T14:01:18.940Z,98854.56
2023-05-17T14:03:46.999Z,98918.56
2023-05-17T14:06:16.154Z,99032.50
2023-05-17T14:08:44.982Z,99042.00
2023-05-17T14:11:12.928Z,98999.56
2023-05-17T14:13:41.653Z,98984.22
2023-05-17T14:16:09.442Z,98976.41
2023-05-17T14:18:38.534Z,98960.09
2023-05-17T14:21:08.113Z,98937.50
2023-05-17T14:23:37.717Z,98932.50
2023-05-17T14:26:07.448Z,98919.41
2023-05-17T14:28:38.002Z,98969.44
2023-05-17T14:31:07.467Z,99062.91
2023-05-17T14:33:36.380Z,99087.03
2023-05-17T14:36:06.659Z,99086.19
2023-05-17T14:38:34.537Z,99090.41
2023-05-17T14:41:06.713Z,99095.81
2023-05-17T14:43:34.693Z,99065.41
2023-05-17T14:46:02.541Z,99030.00
2023-05-17T14:48:31.068Z,98935.97
2023-05-17T14:50:58.896Z,98968.03
2023-05-17T14:53:29.165Z,98968.88
2023-05-17T14:55:58.179Z,99011.00
2023-05-17T14:58:27.444Z,99037.78
2023-05-17T15:01:04.716Z,99099.44
2023-05-17T15:03:34.266Z,99136.31
2023-05-17T15:06:05.104Z,99170.09
2023-05-17T15:08:35.212Z,99162.28
2023-05-17T15:11:03.188Z,99140.75
2023-05-17T15:13:32.412Z,99084.53
2023-05-17T15:16:01.010Z,99079.38
2023-05-17T15:18:28.872Z,99023.97
2023-05-17T15:20:56.599Z,99045.88
2023-05-17T15:23:24.387Z,99038.63
2023-05-17T15:25:52.275Z,99087.16
2023-05-17T15:28:21.187Z,99157.84
2023-05-17T15:31:00.014Z,99191.75
2023-05-17T15:33:28.208Z,99261.94
2023-05-17T15:35:56.053Z,99373.63
2023-05-17T15:38:23.890Z,99455.75
2023-05-17T15:41:02.622Z,99557.16
2023-05-17T15:43:31.230Z,99572.94
2023-05-17T15:46:00.337Z,99633.44
2023-05-17T15:48:29.228Z,99588.34
2023-05-17T15:50:57.674Z,99594.50
2023-05-17T15:53:27.181Z,99549.44
2023-05-17T15:55:55.197Z,99577.16
2023-05-17T15:58:24.764Z,99560.78
2023-05-17T16:00:52.538Z,99561.63
2023-05-17T16:03:22.112Z,99532.09
2023-05-17T16:05:50.055Z,99527.06
2023-05-17T16:08:17.969Z,99538.25
2023-05-17T16:10:45.975Z,99668.16
2023-05-17T16:13:13.966Z,99847.97
2023-05-17T16:15:42.271Z,100016.41
2023-05-17T16:18:10.856Z,100057.34
2023-05-17T16:20:40.334Z,100037.19
2023-05-17T16:23:08.601Z,100120.94
2023-05-17T16:25:37.606Z,100242.59
2023-05-17T16:28:05.433Z,100418.50
2023-05-17T16:30:33.291Z,100525.78
2023-05-17T16:33:01.328Z,100451.66
2023-05-17T16:35:29.483Z,100392.59
2023-05-17T16:37:58.785Z,100371.53
2023-05-17T16:40:29.444Z,100317.44
2023-05-17T16:42:57.891Z,100131.56
2023-05-17T16:45:25.670Z,100067.00
2023-05-17T16:47:53.504Z,100052.16
2023-05-17T16:50:21.715Z,100007.84
2023-05-17T16:52:49.599Z,99897.59
2023-05-17T16:55:19.065Z,99830.59
2023-05-17T16:57:46.866Z,99731.69
2023-05-17T17:00:15.504Z,99622.47
2023-05-17T17:02:43.553Z,99504.63
2023-05-17T17:05:11.787Z,99445.63
2023-05-17T17:07:39.689Z,99397.84
2023-05-17T17:10:08.408Z,99384.22
2023-05-17T17:12:37.538Z,99416.28
2023-05-17T17:15:07.851Z,99396.28
2023-05-17T17:17:36.136Z,99346.91
2023-05-17T17:20:05.534Z,99351.94
2023-05-17T17:22:33.369Z,99334.63
2023-05-17T17:25:01.352Z,99318.28
2023-05-17T17:27:29.201Z,99313.94
2023-05-17T17:29:58.348Z,99308.78
2023-05-17T17:32:27.009Z,99282.66
2023-05-17T17:34:55.007Z,99300.94
2023-05-17T17:37:23.012Z,99287.13
2023-05-17T17:39:50.830Z,99278.69
2023-05-17T17:42:18.793Z,99227.59
2023-05-17T17:44:47.014Z,99250.91
2023-05-17T17:47:16.350Z,99233.59
2023-05-17T17:49:44.173Z,99240.44
2023-05-17T17:52:12.093Z,99213.88
2023-05-17T17:54:39.918Z,99244.75
2023-05-17T17:57:08.202Z,99255.22
2023-05-17T17:59:36.040Z,99252.59
2023-05-17T18:02:03.861Z,99243.94
2023-05-17T18:04:33.073Z,99238.75
2023-05-17T18:07:02.201Z,99197.16
2023-05-17T18:09:30.035Z,99215.31
2023-05-17T18:11:59.525Z,99189.22
2023-05-17T18:14:27.328Z,99202.47
2023-05-17T18:16:55.212Z,99167.00
2023-05-17T18:19:23.179Z,99152.09
2023-05-17T18:21:52.362Z,99127.06
2023-05-17T18:24:20.374Z,99087.44
2023-05-17T18:26:48.280Z,99069.41
2023-05-17T18:29:16.064Z,99025.19
2023-05-17T18:31:44.043Z,99034.66
2023-05-17T18:34:12.400Z,99031.91
2023-05-17T18:36:40.173Z,99036.25
2023-05-17T18:39:09.323Z,99030.22
2023-05-17T18:41:37.104Z,99023.50
2023-05-17T18:44:04.927Z,99025.91
2023-05-17T18:46:33.077Z,98979.31
2023-05-17T18:49:00.883Z,98944.88
2023-05-17T18:51:28.944Z,98929.25
2023-05-17T18:53:56.968Z,98934.66
2023-05-17T18:56:26.730Z,98950.16
2023-05-17T18:58:55.401Z,98932.00
2023-05-17T19:01:23.446Z,98912.09
2023-05-17T19:03:55.039Z,98904.28
2023-05-17T19:06:23.438Z,98860.25
2023-05-17T19:08:51.916Z,98899.13
2023-05-17T19:11:19.798Z,98836.13
2023-05-17T19:13:49.159Z,98812.75
2023-05-17T19:16:18.187Z,98774.13
2023-05-17T19:18:46.144Z,98728.31
2023-05-17T19:21:14.032Z,98710.22
2023-05-17T19:23:41.914Z,98679.97
2023-05-17T19:26:09.765Z,98636.97
2023-05-17T19:28:37.640Z,98623.06
2023-05-17T19:31:08.260Z,98661.88
2023-05-17T19:33:37.705Z,98668.13
2023-05-17T19:36:06.486Z,98682.47
2023-05-17T19:38:34.340Z,98666.31
2023-05-17T19:41:03.838Z,98632.66
2023-05-17T19:43:35.598Z,98661.16
2023-05-17T19:46:03.504Z,98669.53
2023-05-17T19:48:32.686Z,98649.06
2023-05-17T19:51:00.506Z,98593.84
2023-05-17T19:53:36.912Z,98566.25
2023-05-17T19:56:12.064Z,98544.00
2023-05-17T19:58:40.034Z,98552.47
2023-05-17T20:01:07.795Z,98568.91
2023-05-17T20:03:37.058Z,98588.56
2023-05-17T20:06:05.185Z,98605.81
2023-05-17T20:08:33.007Z,98627.50
2023-05-17T20:11:01.003Z,98572.50
2023-05-17T20:13:29.623Z,98543.88
2023-05-17T20:15:57.592Z,98540.38
2023-05-17T20:18:27.623Z,98517.16
2023-05-17T20:20:56.862Z,98494.91
2023-05-17T20:23:24.619Z,98450.81
2023-05-17T20:25:52.509Z,98416.59
2023-05-17T20:28:20.686Z,98362.25
2023-05-17T20:30:48.498Z,98315.13
2023-05-17T20:33:16.378Z,98315.94
2023-05-17T20:35:44.173Z,98341.53
2023-05-17T20:38:13.270Z,98342.34
2023-05-17T20:40:41.990Z,98334.84
2023-05-17T20:43:09.910Z,98289.03
2023-05-17T20:45:37.778Z,98323.47
2023-05-17T20:48:05.639Z,98352.06
2023-05-17T20:50:33.510Z,98335.94
2023-05-17T20:53:01.372Z,98368.22
2023-05-17T20:55:30.624Z,98407.03
2023-05-17T20:57:58.495Z,98389.63
2023-05-17T21:00:26.307Z,98391.56
2023-05-17T21:02:54.204Z,98438.84
2023-05-17T21:05:22.301Z,98422.59
2023-05-17T21:07:50.527Z,98412.16
2023-05-17T21:10:18.940Z,98423.56
2023-05-17T21:12:48.211Z,98408.00
2023-05-17T21:15:17.499Z,98391.69
2023-05-17T21:17:45.573Z,98370.16
2023-05-17T21:20:13.968Z,98361.56
2023-05-17T21:22:41.871Z,98331.38
2023-05-17T21:25:10.681Z,98325.41
2023-05-17T21:27:38.481Z,98322.91
2023-05-17T21:30:09.127Z,98322.06
2023-05-17T21:32:37.171Z,98285.94
2023-05-17T21:35:05.398Z,98295.41
2023-05-17T21:37:33.401Z,98283.31
2023-05-17T21:40:01.339Z,98228.16
2023-05-17T21:42:29.175Z,98217.06
2023-05-17T21:44:57.492Z,98173.75
2023-05-17T21:47:26.893Z,98140.59
2023-05-17T21:49:55.486Z,98064.13
2023-05-17T21:52:23.308Z,98027.09
2023-05-17T21:54:51.092Z,98011.66
2023-05-17T21:57:20.941Z,97999.88
2023-05-17T21:59:49.012Z,97959.41
2023-05-17T22:02:16.955Z,97961.06
2023-05-17T22:04:46.156Z,97960.94
2023-05-17T22:07:14.173Z,97947.34
2023-05-17T22:09:41.991Z,97981.03
2023-05-17T22:12:12.253Z,98007.50
2023-05-17T22:14:44.540Z,97977.44
2023-05-17T22:17:12.361Z,97983.38
2023-05-17T22:19:41.706Z,97974.78
2023-05-17T22:22:11.046Z,97903.56
2023-05-17T22:24:39.264Z,97907.97
2023-05-17T22:27:07.329Z,97880.53
2023-05-17T22:29:35.150Z,97841.88
2023-05-17T22:32:02.951Z,97808.50
2023-05-17T22:34:30.931Z,97760.56
2023-05-17T22:36:58.871Z,97727.06
2023-05-17T22:39:28.017Z,97720.97
2023-05-17T22:41:55.946Z,97718.47
2023-05-17T22:44:24.065Z,97687.88
2023-05-17T22:46:52.067Z,97651.59
2023-05-17T22:49:20.335Z,97604.44
2023-05-17T22:51:51.899Z,97567.75
2023-05-17T22:54:19.779Z,97537.06
2023-05-17T22:56:48.958Z,97500.13
2023-05-17T22:59:16.766Z,97464.19
2023-05-17T23:01:44.746Z,97436.81
2023-05-17T23:04:12.649Z,97409.47
2023-05-17T23:06:40.521Z,97391.50
2023-05-17T23:09:08.575Z,97365.13
2023-05-17T23:11:36.603Z,97350.47
2023-05-17T23:14:05.890Z,97349.50
2023-05-17T23:16:35.985Z,97369.13
2023-05-17T23:19:04.053Z,97410.28
2023-05-17T23:21:33.297Z,97376.03
2023-05-17T23:24:01.149Z,97319.50
2023-05-17T23:26:29.476Z,97310.25
2023-05-17T23:28:57.384Z,97283.75
2023-05-17T23:31:26.793Z,97301.69
2023-05-17T23:33:54.576Z,97292.03
2023-05-17T23:36:22.380Z,97272.56
2023-05-17T23:38:50.139Z,97247.03
2023-05-17T23:41:19.750Z,97251.59
2023-05-17T23:43:48.065Z,97311.09
2023-05-17T23:46:19.931Z,97327.25
2023-05-17T23:48:51.108Z,97332.34
2023-05-17T23:51:21.403Z,97330.69
2023-05-17T23:53:51.958Z,97310.25
2023-05-17T23:56:21.537Z,97309.28
2023-05-17T23:58:49.408Z,97307.63
